F/V Sanaga 2 — FMIL — position and weather

sailwx.info

Track history (hours):
 
Tides and Currents Weather Stations Pressure Air Temp Water Temp Dewpoint Dewpoint Depression Visibility Wind Speed Wind Dir Waves Ship Positions

F/V Sanaga 2

Last reported at 2017-Dec-13 21:58 UTC. Time now 2017-Dec-15 06:43 UTC.
Position N 47°51' W 003°56'.

Length 14 m.

Type: Fishing. MMSI: 228238600.

Date/timePositionNaut miles runAvg speedWind from/ knotsBaromVisibWave heightAir tempDewpointWater temp
2017-Dec-13 21:58N 47°51' W 003°56'16 7.1
2017-Dec-13 19:43N 47°35' W 003°54'1 7.0
2017-Dec-13 19:30N 47°34' W 003°54'5 6.9
2017-Dec-13 18:49N 47°29' W 003°53'2 5.8
2017-Dec-13 18:30N 47°27' W 003°53'3 0.1
2017-Dec-12 02:09N 47°30' W 003°54'1 7.7
2017-Dec-12 02:00N 47°31' W 003°54'4 8.0
2017-Dec-12 01:30N 47°35' W 003°54'4 8.0
2017-Dec-12 01:00N 47°39' W 003°54'4 8.1
2017-Dec-12 00:29N 47°43' W 003°55'4 8.1
2017-Dec-12 00:01N 47°47' W 003°56'  
2017-Dec-07 22:42N 47°52' W 003°56'3 7.9
2017-Dec-07 22:21N 47°49' W 003°56'3 8.1
2017-Dec-07 21:55N 47°45' W 003°55'5 7.7
2017-Dec-07 21:16N 47°41' W 003°54'4 7.4
2017-Dec-07 20:46N 47°37' W 003°55'5 7.5
2017-Dec-07 20:08N 47°32' W 003°57'2 7.3
2017-Dec-07 19:55N 47°31' W 003°57'5 1.7
2017-Dec-07 17:00N 47°27' W 003°53'1 2.9
2017-Dec-07 16:30N 47°26' W 003°55'3 3.3
2017-Dec-07 15:40N 47°27' W 003°59'5 3.3
2017-Dec-07 14:10N 47°27' W 004°06'7 0.7
2017-Dec-07 03:32N 47°26' W 003°55'2 1.4
2017-Dec-07 02:25N 47°27' W 003°53'1 3.1
2017-Dec-07 02:00N 47°28' W 003°54'1 2.7
2017-Dec-07 01:28N 47°28' W 003°56'2 3.5
2017-Dec-07 00:59N 47°26' W 003°57'3 0.9
2017-Dec-06 21:34N 47°24' W 003°55'0 3.1
2017-Dec-06 21:27N 47°24' W 003°56'2 3.1
2017-Dec-06 20:55N 47°24' W 003°58'  
Track history (hours):
 
Tides and Currents Weather Stations Pressure Air Temp Water Temp Dewpoint Dewpoint Depression Visibility Wind Speed Wind Dir Waves Ship Positions

F/V Sanaga 2

Last reported at 2017-Dec-13 21:58 UTC. Time now 2017-Dec-15 06:43 UTC.
Position N 47°51' W 003°56'.

Length 14 m.

Type: Fishing. MMSI: 228238600.

Date/timePositionNaut miles runAvg speedWind from/ knotsBaromVisibWave heightAir tempDewpointWater temp
2017-Dec-13 21:58N 47°51' W 003°56'16 7.1
2017-Dec-13 19:43N 47°35' W 003°54'1 7.0
2017-Dec-13 19:30N 47°34' W 003°54'5 6.9
2017-Dec-13 18:49N 47°29' W 003°53'2 5.8
2017-Dec-13 18:30N 47°27' W 003°53'3 0.1
2017-Dec-12 02:09N 47°30' W 003°54'1 7.7
2017-Dec-12 02:00N 47°31' W 003°54'4 8.0
2017-Dec-12 01:30N 47°35' W 003°54'4 8.0
2017-Dec-12 01:00N 47°39' W 003°54'4 8.1
2017-Dec-12 00:29N 47°43' W 003°55'4 8.1
2017-Dec-12 00:01N 47°47' W 003°56'  
2017-Dec-07 22:42N 47°52' W 003°56'3 7.9
2017-Dec-07 22:21N 47°49' W 003°56'3 8.1
2017-Dec-07 21:55N 47°45' W 003°55'5 7.7
2017-Dec-07 21:16N 47°41' W 003°54'4 7.4
2017-Dec-07 20:46N 47°37' W 003°55'5 7.5
2017-Dec-07 20:08N 47°32' W 003°57'2 7.3
2017-Dec-07 19:55N 47°31' W 003°57'5 1.7
2017-Dec-07 17:00N 47°27' W 003°53'1 2.9
2017-Dec-07 16:30N 47°26' W 003°55'3 3.3
2017-Dec-07 15:40N 47°27' W 003°59'5 3.3
2017-Dec-07 14:10N 47°27' W 004°06'7 0.7
2017-Dec-07 03:32N 47°26' W 003°55'2 1.4
2017-Dec-07 02:25N 47°27' W 003°53'1 3.1
2017-Dec-07 02:00N 47°28' W 003°54'1 2.7
2017-Dec-07 01:28N 47°28' W 003°56'2 3.5
2017-Dec-07 00:59N 47°26' W 003°57'3 0.9
2017-Dec-06 21:34N 47°24' W 003°55'0 3.1
2017-Dec-06 21:27N 47°24' W 003°56'2 3.1
2017-Dec-06 20:55N 47°24' W 003°58'  

Dump ship's entire track history